sensor_id;sensor_type;location;lat;lon;timestamp;pressure;altitude;pressure_sealevel;temperature;humidity
55466;BME280;41329;41.594;23.810;2023-05-22T00:02:19;94881.47;;;17.12;55.27
55466;BME280;41329;41.594;23.810;2023-05-22T00:04:46;94882.13;;;17.19;55.27
55466;BME280;41329;41.594;23.810;2023-05-22T00:07:12;94845.09;;;16.89;55.31
55466;BME280;41329;41.594;23.810;2023-05-22T00:09:37;94880.56;;;17.18;55.78
55466;BME280;41329;41.594;23.810;2023-05-22T00:12:03;94870.88;;;17.23;55.36
55466;BME280;41329;41.594;23.810;2023-05-22T00:14:28;94872.53;;;17.20;55.35
55466;BME280;41329;41.594;23.810;2023-05-22T00:16:53;94879.94;;;17.30;55.65
55466;BME280;41329;41.594;23.810;2023-05-22T00:19:20;94854.94;;;17.20;56.26
55466;BME280;41329;41.594;23.810;2023-05-22T00:21:47;94877.13;;;17.30;56.55
55466;BME280;41329;41.594;23.810;2023-05-22T00:24:12;94873.66;;;17.23;56.58
55466;BME280;41329;41.594;23.810;2023-05-22T00:26:38;94863.78;;;17.18;57.05
55466;BME280;41329;41.594;23.810;2023-05-22T00:29:03;94862.34;;;17.07;58.19
55466;BME280;41329;41.594;23.810;2023-05-22T00:31:30;94867.16;;;17.06;58.11
55466;BME280;41329;41.594;23.810;2023-05-22T00:33:55;94841.88;;;16.90;58.54
55466;BME280;41329;41.594;23.810;2023-05-22T00:36:21;94865.28;;;17.00;58.62
55466;BME280;41329;41.594;23.810;2023-05-22T00:38:46;94850.00;;;16.81;59.13
55466;BME280;41329;41.594;23.810;2023-05-22T00:41:12;94869.75;;;16.94;59.12
55466;BME280;41329;41.594;23.810;2023-05-22T00:43:38;94868.72;;;16.84;59.22
55466;BME280;41329;41.594;23.810;2023-05-22T00:46:03;94868.94;;;16.70;59.73
55466;BME280;41329;41.594;23.810;2023-05-22T00:48:31;94874.34;;;16.54;60.37
55466;BME280;41329;41.594;23.810;2023-05-22T00:50:57;94863.63;;;16.53;60.61
55466;BME280;41329;41.594;23.810;2023-05-22T00:53:24;94862.88;;;16.49;60.67
55466;BME280;41329;41.594;23.810;2023-05-22T00:55:50;94852.91;;;16.48;60.33
55466;BME280;41329;41.594;23.810;2023-05-22T00:58:17;94875.88;;;16.59;60.30
55466;BME280;41329;41.594;23.810;2023-05-22T01:00:43;94871.09;;;16.59;60.18
55466;BME280;41329;41.594;23.810;2023-05-22T01:03:09;94854.78;;;16.54;60.51
55466;BME280;41329;41.594;23.810;2023-05-22T01:05:36;94874.25;;;16.61;60.52
55466;BME280;41329;41.594;23.810;2023-05-22T01:08:02;94864.31;;;16.57;60.30
55466;BME280;41329;41.594;23.810;2023-05-22T01:10:29;94849.69;;;16.49;60.05
55466;BME280;41329;41.594;23.810;2023-05-22T01:12:59;94879.03;;;16.61;60.55
55466;BME280;41329;41.594;23.810;2023-05-22T01:15:42;94873.03;;;16.62;60.56
55466;BME280;41329;41.594;23.810;2023-05-22T01:18:54;94883.19;;;16.49;60.60
55466;BME280;41329;41.594;23.810;2023-05-22T01:21:34;94865.69;;;16.45;61.29
55466;BME280;41329;41.594;23.810;2023-05-22T01:24:13;94870.44;;;16.48;60.70
55466;BME280;41329;41.594;23.810;2023-05-22T01:29:29;94853.88;;;16.34;61.34
55466;BME280;41329;41.594;23.810;2023-05-22T01:32:03;94870.06;;;16.46;60.76
55466;BME280;41329;41.594;23.810;2023-05-22T01:34:30;94851.03;;;16.38;60.83
55466;BME280;41329;41.594;23.810;2023-05-22T01:36:59;94862.06;;;16.48;61.12
55466;BME280;41329;41.594;23.810;2023-05-22T01:39:26;94843.44;;;16.38;61.13
55466;BME280;41329;41.594;23.810;2023-05-22T01:41:52;94838.28;;;16.37;61.06
55466;BME280;41329;41.594;23.810;2023-05-22T01:44:18;94840.28;;;16.36;61.29
55466;BME280;41329;41.594;23.810;2023-05-22T01:46:43;94848.94;;;16.45;61.51
55466;BME280;41329;41.594;23.810;2023-05-22T01:49:08;94846.56;;;16.44;61.22
55466;BME280;41329;41.594;23.810;2023-05-22T01:51:56;94853.31;;;16.46;61.28
55466;BME280;41329;41.594;23.810;2023-05-22T01:54:31;94853.00;;;16.41;61.63
55466;BME280;41329;41.594;23.810;2023-05-22T01:57:18;94849.81;;;16.42;61.75
55466;BME280;41329;41.594;23.810;2023-05-22T02:00:07;94834.69;;;16.36;61.64
55466;BME280;41329;41.594;23.810;2023-05-22T02:02:37;94838.38;;;16.30;62.14
55466;BME280;41329;41.594;23.810;2023-05-22T02:05:04;94837.22;;;16.27;62.00
55466;BME280;41329;41.594;23.810;2023-05-22T02:07:36;94831.25;;;16.25;62.28
55466;BME280;41329;41.594;23.810;2023-05-22T02:10:02;94839.94;;;16.31;62.27
55466;BME280;41329;41.594;23.810;2023-05-22T02:12:29;94837.22;;;16.27;62.58
55466;BME280;41329;41.594;23.810;2023-05-22T02:14:55;94836.13;;;16.21;62.21
55466;BME280;41329;41.594;23.810;2023-05-22T02:17:21;94834.91;;;16.22;62.38
55466;BME280;41329;41.594;23.810;2023-05-22T02:19:46;94835.78;;;16.16;62.66
55466;BME280;41329;41.594;23.810;2023-05-22T02:22:12;94834.97;;;16.15;62.60
55466;BME280;41329;41.594;23.810;2023-05-22T02:24:40;94846.75;;;16.00;63.29
55466;BME280;41329;41.594;23.810;2023-05-22T02:27:07;94836.81;;;15.99;63.32
55466;BME280;41329;41.594;23.810;2023-05-22T02:29:33;94840.34;;;16.03;63.62
55466;BME280;41329;41.594;23.810;2023-05-22T02:31:59;94826.59;;;15.85;63.55
55466;BME280;41329;41.594;23.810;2023-05-22T02:34:24;94784.69;;;15.59;63.54
55466;BME280;41329;41.594;23.810;2023-05-22T02:36:51;94838.50;;;15.89;63.53
55466;BME280;41329;41.594;23.810;2023-05-22T02:39:17;94829.41;;;15.85;63.54
55466;BME280;41329;41.594;23.810;2023-05-22T02:41:42;94839.25;;;15.93;63.62
55466;BME280;41329;41.594;23.810;2023-05-22T02:44:08;94851.94;;;15.98;63.49
55466;BME280;41329;41.594;23.810;2023-05-22T02:46:33;94853.56;;;15.99;63.50
55466;BME280;41329;41.594;23.810;2023-05-22T02:48:58;94850.38;;;15.97;63.77
55466;BME280;41329;41.594;23.810;2023-05-22T02:51:24;94853.50;;;16.02;63.41
55466;BME280;41329;41.594;23.810;2023-05-22T02:53:49;94852.69;;;16.02;63.54
55466;BME280;41329;41.594;23.810;2023-05-22T02:56:14;94855.88;;;16.04;63.12
55466;BME280;41329;41.594;23.810;2023-05-22T02:58:40;94844.03;;;15.96;63.06
55466;BME280;41329;41.594;23.810;2023-05-22T03:01:06;94854.66;;;16.05;63.02
55466;BME280;41329;41.594;23.810;2023-05-22T03:03:33;94847.44;;;16.07;62.86
55466;BME280;41329;41.594;23.810;2023-05-22T03:05:59;94844.66;;;16.07;62.90
55466;BME280;41329;41.594;23.810;2023-05-22T03:08:28;94852.66;;;16.05;63.04
55466;BME280;41329;41.594;23.810;2023-05-22T03:10:57;94831.59;;;16.01;62.98
55466;BME280;41329;41.594;23.810;2023-05-22T03:13:23;94850.66;;;16.06;62.94
55466;BME280;41329;41.594;23.810;2023-05-22T03:15:49;94830.91;;;15.93;62.98
55466;BME280;41329;41.594;23.810;2023-05-22T03:18:15;94850.66;;;16.06;62.89
55466;BME280;41329;41.594;23.810;2023-05-22T03:20:40;94840.75;;;16.01;63.21
55466;BME280;41329;41.594;23.810;2023-05-22T03:23:06;94845.19;;;15.99;63.01
55466;BME280;41329;41.594;23.810;2023-05-22T03:25:31;94852.63;;;16.09;63.40
55466;BME280;41329;41.594;23.810;2023-05-22T03:27:56;94859.00;;;16.09;63.47
55466;BME280;41329;41.594;23.810;2023-05-22T03:30:22;94850.22;;;16.11;63.99
55466;BME280;41329;41.594;23.810;2023-05-22T03:32:47;94849.81;;;16.09;63.59
55466;BME280;41329;41.594;23.810;2023-05-22T03:35:12;94849.34;;;16.14;63.39
55466;BME280;41329;41.594;23.810;2023-05-22T03:37:43;94847.38;;;16.14;63.54
55466;BME280;41329;41.594;23.810;2023-05-22T03:40:09;94839.03;;;16.11;63.49
55466;BME280;41329;41.594;23.810;2023-05-22T03:42:34;94840.22;;;16.13;63.44
55466;BME280;41329;41.594;23.810;2023-05-22T03:45:00;94846.94;;;16.16;63.78
55466;BME280;41329;41.594;23.810;2023-05-22T03:47:25;94852.94;;;16.14;64.17
55466;BME280;41329;41.594;23.810;2023-05-22T03:49:50;94851.38;;;16.13;64.24
55466;BME280;41329;41.594;23.810;2023-05-22T03:52:16;94847.16;;;15.98;64.18
55466;BME280;41329;41.594;23.810;2023-05-22T03:54:41;94858.75;;;15.97;64.64
55466;BME280;41329;41.594;23.810;2023-05-22T03:57:06;94842.13;;;15.86;64.77
55466;BME280;41329;41.594;23.810;2023-05-22T03:59:32;94866.66;;;16.02;64.58
55466;BME280;41329;41.594;23.810;2023-05-22T04:01:57;94867.13;;;15.97;64.69
55466;BME280;41329;41.594;23.810;2023-05-22T04:04:26;94869.88;;;16.00;65.05
55466;BME280;41329;41.594;23.810;2023-05-22T04:06:51;94874.25;;;16.01;65.08
55466;BME280;41329;41.594;23.810;2023-05-22T04:09:17;94874.59;;;16.03;64.94
55466;BME280;41329;41.594;23.810;2023-05-22T04:11:42;94856.84;;;15.90;64.93
55466;BME280;41329;41.594;23.810;2023-05-22T04:14:09;94885.34;;;16.05;64.74
55466;BME280;41329;41.594;23.810;2023-05-22T04:16:34;94879.44;;;15.99;64.76
55466;BME280;41329;41.594;23.810;2023-05-22T04:19:00;94873.50;;;15.97;64.88
55466;BME280;41329;41.594;23.810;2023-05-22T04:21:28;94876.22;;;16.01;65.23
55466;BME280;41329;41.594;23.810;2023-05-22T04:23:53;94869.88;;;16.00;65.14
55466;BME280;41329;41.594;23.810;2023-05-22T04:26:19;94867.44;;;16.02;65.16
55466;BME280;41329;41.594;23.810;2023-05-22T04:28:45;94843.34;;;15.85;65.57
55466;BME280;41329;41.594;23.810;2023-05-22T04:31:14;94876.19;;;16.04;65.43
55466;BME280;41329;41.594;23.810;2023-05-22T04:33:40;94880.28;;;15.96;65.75
55466;BME280;41329;41.594;23.810;2023-05-22T04:36:05;94890.25;;;15.94;66.24
55466;BME280;41329;41.594;23.810;2023-05-22T04:38:32;94872.00;;;15.89;66.34
55466;BME280;41329;41.594;23.810;2023-05-22T04:41:02;94881.44;;;15.99;66.44
55466;BME280;41329;41.594;23.810;2023-05-22T04:43:27;94881.41;;;16.02;66.45
55466;BME280;41329;41.594;23.810;2023-05-22T04:45:54;94887.34;;;16.04;66.59
55466;BME280;41329;41.594;23.810;2023-05-22T04:48:23;94901.97;;;16.15;66.68
55466;BME280;41329;41.594;23.810;2023-05-22T04:50:49;94893.53;;;16.19;66.33
55466;BME280;41329;41.594;23.810;2023-05-22T04:53:14;94871.22;;;16.19;66.08
55466;BME280;41329;41.594;23.810;2023-05-22T04:55:40;94887.88;;;16.26;66.34
55466;BME280;41329;41.594;23.810;2023-05-22T04:58:06;94868.41;;;16.22;66.34
55466;BME280;41329;41.594;23.810;2023-05-22T05:00:31;94876.97;;;16.35;66.02
55466;BME280;41329;41.594;23.810;2023-05-22T05:02:57;94880.53;;;16.42;65.37
55466;BME280;41329;41.594;23.810;2023-05-22T05:05:24;94887.22;;;16.48;64.89
55466;BME280;41329;41.594;23.810;2023-05-22T05:07:50;94891.91;;;16.55;63.39
55466;BME280;41329;41.594;23.810;2023-05-22T05:10:16;94888.59;;;16.63;62.59
55466;BME280;41329;41.594;23.810;2023-05-22T05:12:41;94834.34;;;16.34;62.00
55466;BME280;41329;41.594;23.810;2023-05-22T05:15:07;94888.53;;;16.67;61.38
55466;BME280;41329;41.594;23.810;2023-05-22T05:17:33;94888.53;;;16.67;60.47
55466;BME280;41329;41.594;23.810;2023-05-22T05:19:58;94879.84;;;16.61;59.90
55466;BME280;41329;41.594;23.810;2023-05-22T05:22:24;94875.50;;;16.57;59.82
55466;BME280;41329;41.594;23.810;2023-05-22T05:24:50;94882.47;;;16.72;59.79
55466;BME280;41329;41.594;23.810;2023-05-22T05:27:15;94891.84;;;16.85;59.65
55466;BME280;41329;41.594;23.810;2023-05-22T05:29:41;94892.97;;;16.91;58.72
55466;BME280;41329;41.594;23.810;2023-05-22T05:32:06;94883.69;;;16.97;58.59
55466;BME280;41329;41.594;23.810;2023-05-22T05:34:32;94875.31;;;16.97;57.62
55466;BME280;41329;41.594;23.810;2023-05-22T05:36:57;94896.69;;;17.07;56.61
55466;BME280;41329;41.594;23.810;2023-05-22T05:39:23;94893.47;;;17.09;57.03
55466;BME280;41329;41.594;23.810;2023-05-22T05:41:48;94887.81;;;17.12;56.51
55466;BME280;41329;41.594;23.810;2023-05-22T05:44:14;94888.44;;;17.23;56.41
55466;BME280;41329;41.594;23.810;2023-05-22T05:46:40;94877.75;;;17.18;56.48
55466;BME280;41329;41.594;23.810;2023-05-22T05:49:06;94890.25;;;17.33;56.38
55466;BME280;41329;41.594;23.810;2023-05-22T05:51:35;94892.06;;;17.47;56.05
55466;BME280;41329;41.594;23.810;2023-05-22T05:54:01;94894.78;;;17.50;56.29
55466;BME280;41329;41.594;23.810;2023-05-22T05:56:26;94874.88;;;17.48;55.39
55466;BME280;41329;41.594;23.810;2023-05-22T05:58:52;94879.13;;;17.56;54.07
55466;BME280;41329;41.594;23.810;2023-05-22T06:01:17;94879.38;;;17.62;54.63
55466;BME280;41329;41.594;23.810;2023-05-22T06:03:43;94902.19;;;17.83;54.96
55466;BME280;41329;41.594;23.810;2023-05-22T06:06:08;94893.78;;;17.83;54.01
55466;BME280;41329;41.594;23.810;2023-05-22T06:08:34;94905.09;;;18.00;54.09
55466;BME280;41329;41.594;23.810;2023-05-22T06:11:00;94894.72;;;17.97;53.24
55466;BME280;41329;41.594;23.810;2023-05-22T06:13:26;94906.03;;;18.13;53.49
55466;BME280;41329;41.594;23.810;2023-05-22T06:15:51;94899.91;;;18.18;53.38
55466;BME280;41329;41.594;23.810;2023-05-22T06:18:16;94893.47;;;18.21;51.82
55466;BME280;41329;41.594;23.810;2023-05-22T07:30:43;94896.75;;;19.42;49.32
55466;BME280;41329;41.594;23.810;2023-05-22T07:33:08;94873.94;;;19.40;49.82
55466;BME280;41329;41.594;23.810;2023-05-22T07:35:34;94859.41;;;19.29;49.00
55466;BME280;41329;41.594;23.810;2023-05-22T07:37:59;94879.94;;;19.42;49.13
55466;BME280;41329;41.594;23.810;2023-05-22T07:40:25;94868.72;;;19.42;49.80
55466;BME280;41329;41.594;23.810;2023-05-22T07:42:50;94877.28;;;19.67;49.20
55466;BME280;41329;41.594;23.810;2023-05-22T07:45:15;94863.78;;;19.62;48.94
55466;BME280;41329;41.594;23.810;2023-05-22T07:47:41;94866.50;;;19.65;49.44
55466;BME280;41329;41.594;23.810;2023-05-22T07:50:07;94885.13;;;19.88;48.86
55466;BME280;41329;41.594;23.810;2023-05-22T07:52:32;94893.13;;;19.89;48.95
55466;BME280;41329;41.594;23.810;2023-05-22T07:54:58;94891.78;;;19.94;47.67
55466;BME280;41329;41.594;23.810;2023-05-22T07:57:23;94885.84;;;19.92;49.37
55466;BME280;41329;41.594;23.810;2023-05-22T07:59:49;94888.78;;;20.01;48.12
55466;BME280;41329;41.594;23.810;2023-05-22T08:02:16;94891.59;;;20.01;48.31
55466;BME280;41329;41.594;23.810;2023-05-22T08:04:42;94890.72;;;20.04;47.87
55466;BME280;41329;41.594;23.810;2023-05-22T08:07:09;94905.19;;;20.02;47.92
55466;BME280;41329;41.594;23.810;2023-05-22T08:09:35;94904.66;;;20.07;47.57
55466;BME280;41329;41.594;23.810;2023-05-22T08:12:01;94904.94;;;19.97;48.03
55466;BME280;41329;41.594;23.810;2023-05-22T08:14:26;94916.31;;;20.06;48.57
55466;BME280;41329;41.594;23.810;2023-05-22T08:16:52;94908.78;;;20.03;47.48
55466;BME280;41329;41.594;23.810;2023-05-22T08:19:17;94916.63;;;19.95;47.28
55466;BME280;41329;41.594;23.810;2023-05-22T08:21:43;94915.81;;;19.95;48.07
55466;BME280;41329;41.594;23.810;2023-05-22T08:24:08;94923.25;;;20.01;48.24
55466;BME280;41329;41.594;23.810;2023-05-22T08:26:34;94921.91;;;19.93;48.09
55466;BME280;41329;41.594;23.810;2023-05-22T08:28:59;94893.31;;;19.66;48.29
55466;BME280;41329;41.594;23.810;2023-05-22T08:31:25;94926.88;;;19.86;48.54
55466;BME280;41329;41.594;23.810;2023-05-22T08:33:53;94938.31;;;19.79;47.83
55466;BME280;41329;41.594;23.810;2023-05-22T08:36:20;94929.34;;;19.84;49.02
55466;BME280;41329;41.594;23.810;2023-05-22T08:38:47;94924.63;;;19.81;49.40
55466;BME280;41329;41.594;23.810;2023-05-22T08:41:13;94938.81;;;19.90;48.62
55466;BME280;41329;41.594;23.810;2023-05-22T08:43:40;94904.97;;;19.65;48.41
55466;BME280;41329;41.594;23.810;2023-05-22T08:46:05;94935.56;;;19.91;47.89
55466;BME280;41329;41.594;23.810;2023-05-22T08:48:33;94908.31;;;19.76;47.51
55466;BME280;41329;41.594;23.810;2023-05-22T08:51:03;94934.59;;;19.98;46.54
55466;BME280;41329;41.594;23.810;2023-05-22T08:53:32;94937.66;;;20.03;46.65
55466;BME280;41329;41.594;23.810;2023-05-22T08:55:58;94892.94;;;19.80;47.32
55466;BME280;41329;41.594;23.810;2023-05-22T08:58:24;94940.03;;;20.05;45.38
55466;BME280;41329;41.594;23.810;2023-05-22T09:00:51;94942.75;;;20.08;45.00
55466;BME280;41329;41.594;23.810;2023-05-22T09:03:17;94922.66;;;19.94;46.06
55466;BME280;41329;41.594;23.810;2023-05-22T09:05:46;94940.50;;;19.87;48.43
55466;BME280;41329;41.594;23.810;2023-05-22T09:08:11;94929.34;;;20.00;48.59
55466;BME280;41329;41.594;23.810;2023-05-22T09:10:37;94946.72;;;20.11;48.33
55466;BME280;41329;41.594;23.810;2023-05-22T09:13:07;94937.06;;;19.96;48.08
55466;BME280;41329;41.594;23.810;2023-05-22T09:15:36;94914.09;;;19.85;47.62
55466;BME280;41329;41.594;23.810;2023-05-22T09:18:03;94945.03;;;19.97;47.28
55466;BME280;41329;41.594;23.810;2023-05-22T09:20:29;94937.56;;;19.91;46.99
55466;BME280;41329;41.594;23.810;2023-05-22T09:22:54;94916.91;;;19.69;47.65
55466;BME280;41329;41.594;23.810;2023-05-22T09:25:20;94949.28;;;19.89;47.19
55466;BME280;41329;41.594;23.810;2023-05-22T09:27:47;94939.78;;;19.67;48.23
55466;BME280;41329;41.594;23.810;2023-05-22T09:30:16;94960.50;;;19.73;49.25
55466;BME280;41329;41.594;23.810;2023-05-22T09:32:43;94938.75;;;19.61;49.49
55466;BME280;41329;41.594;23.810;2023-05-22T09:35:08;94944.28;;;19.65;48.29
55466;BME280;41329;41.594;23.810;2023-05-22T09:37:34;94964.28;;;19.83;48.45
55466;BME280;41329;41.594;23.810;2023-05-22T09:40:04;94959.59;;;19.92;48.91
55466;BME280;41329;41.594;23.810;2023-05-22T09:42:32;94942.88;;;19.89;48.21
55466;BME280;41329;41.594;23.810;2023-05-22T09:45:04;94946.88;;;20.04;48.36
55466;BME280;41329;41.594;23.810;2023-05-22T09:47:30;94941.59;;;20.06;48.22
55466;BME280;41329;41.594;23.810;2023-05-22T09:49:56;94939.59;;;20.06;48.21
55466;BME280;41329;41.594;23.810;2023-05-22T09:52:27;94940.47;;;20.03;48.42
55466;BME280;41329;41.594;23.810;2023-05-22T09:54:54;94947.94;;;20.10;48.61
55466;BME280;41329;41.594;23.810;2023-05-22T09:57:24;94913.53;;;20.06;48.24
55466;BME280;41329;41.594;23.810;2023-05-22T09:59:51;94931.69;;;20.17;48.63
55466;BME280;41329;41.594;23.810;2023-05-22T10:02:21;94926.28;;;20.39;49.51
55466;BME280;41329;41.594;23.810;2023-05-22T10:04:48;94923.19;;;20.62;50.38
55466;BME280;41329;41.594;23.810;2023-05-22T10:07:22;94924.06;;;21.00;47.99
55466;BME280;41329;41.594;23.810;2023-05-22T10:09:55;94922.63;;;20.95;46.49
55466;BME280;41329;41.594;23.810;2023-05-22T10:12:24;94924.44;;;21.02;46.96
55466;BME280;41329;41.594;23.810;2023-05-22T10:14:52;94915.78;;;21.09;46.71
55466;BME280;41329;41.594;23.810;2023-05-22T10:17:19;94904.41;;;21.12;45.79
55466;BME280;41329;41.594;23.810;2023-05-22T10:19:45;94887.41;;;21.16;45.68
55466;BME280;41329;41.594;23.810;2023-05-22T10:22:12;94924.31;;;21.55;46.46
55466;BME280;41329;41.594;23.810;2023-05-22T10:24:45;94903.94;;;21.64;46.89
55466;BME280;41329;41.594;23.810;2023-05-22T10:27:12;94899.41;;;21.79;45.68
55466;BME280;41329;41.594;23.810;2023-05-22T10:29:43;94907.13;;;22.00;44.01
55466;BME280;41329;41.594;23.810;2023-05-22T10:32:28;94920.25;;;22.15;43.68
55466;BME280;41329;41.594;23.810;2023-05-22T10:40:54;94908.97;;;21.94;43.34
55466;BME280;41329;41.594;23.810;2023-05-22T10:43:20;94885.59;;;21.72;44.50
55466;BME280;41329;41.594;23.810;2023-05-22T10:45:46;94898.94;;;21.93;43.51
55466;BME280;41329;41.594;23.810;2023-05-22T10:48:12;94880.56;;;21.88;43.38
55466;BME280;41329;41.594;23.810;2023-05-22T10:50:39;94878.69;;;21.60;44.57
55466;BME280;41329;41.594;23.810;2023-05-22T10:53:30;94885.91;;;21.74;43.61
55466;BME280;41329;41.594;23.810;2023-05-22T10:55:57;94862.38;;;21.55;43.56
55466;BME280;41329;41.594;23.810;2023-05-22T10:58:33;94868.03;;;21.43;44.06
55466;BME280;41329;41.594;23.810;2023-05-22T11:04:01;94852.84;;;21.28;43.38
55466;BME280;41329;41.594;23.810;2023-05-22T11:09:18;94872.56;;;21.03;42.81
55466;BME280;41329;41.594;23.810;2023-05-22T11:11:44;94862.50;;;20.77;44.07
55466;BME280;41329;41.594;23.810;2023-05-22T11:14:11;94882.75;;;20.84;44.56
55466;BME280;41329;41.594;23.810;2023-05-22T11:16:38;94884.53;;;20.78;44.58
55466;BME280;41329;41.594;23.810;2023-05-22T11:19:08;94871.94;;;20.70;45.09
55466;BME280;41329;41.594;23.810;2023-05-22T11:24:06;94861.78;;;20.48;44.91
55466;BME280;41329;41.594;23.810;2023-05-22T11:26:32;94883.75;;;20.65;45.51
55466;BME280;41329;41.594;23.810;2023-05-22T11:28:58;94827.31;;;20.19;45.22
55466;BME280;41329;41.594;23.810;2023-05-22T11:31:24;94886.81;;;20.42;45.58
55466;BME280;41329;41.594;23.810;2023-05-22T11:33:52;94893.69;;;20.54;45.97
55466;BME280;41329;41.594;23.810;2023-05-22T11:36:17;94881.56;;;20.44;45.61
55466;BME280;41329;41.594;23.810;2023-05-22T11:38:43;94903.81;;;20.51;46.58
55466;BME280;41329;41.594;23.810;2023-05-22T11:41:09;94896.44;;;20.29;45.57
55466;BME280;41329;41.594;23.810;2023-05-22T11:43:36;94895.22;;;20.30;46.32
55466;BME280;41329;41.594;23.810;2023-05-22T11:46:19;94887.50;;;20.34;46.19
55466;BME280;41329;41.594;23.810;2023-05-22T11:48:46;94899.31;;;20.41;46.63
55466;BME280;41329;41.594;23.810;2023-05-22T11:51:12;94888.38;;;20.43;46.43
55466;BME280;41329;41.594;23.810;2023-05-22T11:53:37;94896.13;;;20.68;46.19
55466;BME280;41329;41.594;23.810;2023-05-22T11:56:05;94886.00;;;20.83;46.31
55466;BME280;41329;41.594;23.810;2023-05-22T11:58:31;94839.31;;;20.73;46.16
55466;BME280;41329;41.594;23.810;2023-05-22T12:01:01;94865.69;;;21.16;45.11
55466;BME280;41329;41.594;23.810;2023-05-22T12:03:28;94882.09;;;21.30;44.91
55466;BME280;41329;41.594;23.810;2023-05-22T12:05:54;94867.03;;;21.37;44.78
55466;BME280;41329;41.594;23.810;2023-05-22T12:08:19;94886.38;;;21.60;43.69
55466;BME280;41329;41.594;23.810;2023-05-22T12:10:48;94885.66;;;21.68;43.00
55466;BME280;41329;41.594;23.810;2023-05-22T12:13:14;94873.50;;;21.59;43.92
55466;BME280;41329;41.594;23.810;2023-05-22T12:15:45;94861.88;;;21.69;44.00
55466;BME280;41329;41.594;23.810;2023-05-22T12:18:10;94862.13;;;21.75;43.57
55466;BME280;41329;41.594;23.810;2023-05-22T12:20:41;94871.91;;;21.83;44.17
55466;BME280;41329;41.594;23.810;2023-05-22T12:23:26;94840.84;;;21.74;44.76
55466;BME280;41329;41.594;23.810;2023-05-22T12:25:56;94867.97;;;21.93;44.05
55466;BME280;41329;41.594;23.810;2023-05-22T12:28:22;94865.00;;;21.96;44.73
55466;BME280;41329;41.594;23.810;2023-05-22T12:30:51;94847.44;;;21.92;44.09
55466;BME280;41329;41.594;23.810;2023-05-22T12:33:17;94869.81;;;22.08;44.17
55466;BME280;41329;41.594;23.810;2023-05-22T12:35:43;94866.53;;;22.10;44.25
55466;BME280;41329;41.594;23.810;2023-05-22T12:38:09;94867.44;;;22.07;43.75
55466;BME280;41329;41.594;23.810;2023-05-22T12:40:35;94867.00;;;22.08;43.93
55466;BME280;41329;41.594;23.810;2023-05-22T12:43:00;94841.88;;;22.01;44.58
55466;BME280;41329;41.594;23.810;2023-05-22T12:45:25;94858.00;;;22.22;44.95
55466;BME280;41329;41.594;23.810;2023-05-22T12:47:51;94865.03;;;22.18;43.55
55466;BME280;41329;41.594;23.810;2023-05-22T12:50:16;94830.28;;;21.99;42.97
55466;BME280;41329;41.594;23.810;2023-05-22T12:52:41;94855.00;;;22.17;42.50
55466;BME280;41329;41.594;23.810;2023-05-22T12:55:09;94824.34;;;22.19;44.16
55466;BME280;41329;41.594;23.810;2023-05-22T12:57:34;94804.72;;;22.15;42.12
55466;BME280;41329;41.594;23.810;2023-05-22T13:00:00;94850.75;;;22.34;41.62
55466;BME280;41329;41.594;23.810;2023-05-22T13:02:25;94836.88;;;22.18;41.18
55466;BME280;41329;41.594;23.810;2023-05-22T13:04:50;94824.66;;;22.21;41.79
55466;BME280;41329;41.594;23.810;2023-05-22T13:07:16;94799.94;;;22.25;41.59
55466;BME280;41329;41.594;23.810;2023-05-22T13:09:41;94817.41;;;22.54;41.86
55466;BME280;41329;41.594;23.810;2023-05-22T13:12:07;94831.09;;;22.64;40.36
55466;BME280;41329;41.594;23.810;2023-05-22T13:14:34;94836.50;;;22.80;41.32
55466;BME280;41329;41.594;23.810;2023-05-22T13:16:59;94837.50;;;22.95;41.27
55466;BME280;41329;41.594;23.810;2023-05-22T13:19:25;94828.00;;;23.02;39.53
55466;BME280;41329;41.594;23.810;2023-05-22T13:21:50;94809.13;;;22.90;39.99
55466;BME280;41329;41.594;23.810;2023-05-22T13:24:16;94827.66;;;23.00;39.35
55466;BME280;41329;41.594;23.810;2023-05-22T13:26:41;94830.94;;;22.98;39.73
55466;BME280;41329;41.594;23.810;2023-05-22T13:29:06;94835.84;;;23.07;40.35
55466;BME280;41329;41.594;23.810;2023-05-22T13:31:32;94830.22;;;23.07;39.99
55466;BME280;41329;41.594;23.810;2023-05-22T13:34:01;94828.50;;;23.10;39.85
55466;BME280;41329;41.594;23.810;2023-05-22T13:36:26;94789.97;;;22.85;40.33
55466;BME280;41329;41.594;23.810;2023-05-22T13:38:52;94826.88;;;22.99;39.78
55466;BME280;41329;41.594;23.810;2023-05-22T13:41:17;94826.22;;;22.95;40.36
55466;BME280;41329;41.594;23.810;2023-05-22T13:43:43;94788.97;;;22.70;39.99
55466;BME280;41329;41.594;23.810;2023-05-22T13:46:08;94806.09;;;22.75;40.56
55466;BME280;41329;41.594;23.810;2023-05-22T13:48:33;94826.09;;;22.68;39.68
55466;BME280;41329;41.594;23.810;2023-05-22T13:50:59;94831.50;;;22.54;40.42
55466;BME280;41329;41.594;23.810;2023-05-22T13:53:24;94832.78;;;22.40;40.95
55466;BME280;41329;41.594;23.810;2023-05-22T13:55:50;94824.47;;;22.37;41.23
55466;BME280;41329;41.594;23.810;2023-05-22T13:58:15;94808.28;;;22.28;41.73
55466;BME280;41329;41.594;23.810;2023-05-22T14:00:41;94809.06;;;22.29;41.74
55466;BME280;41329;41.594;23.810;2023-05-22T14:03:06;94825.44;;;22.43;41.85
55466;BME280;41329;41.594;23.810;2023-05-22T14:05:31;94800.28;;;22.27;42.11
55466;BME280;41329;41.594;23.810;2023-05-22T14:07:57;94795.31;;;22.31;42.04
55466;BME280;41329;41.594;23.810;2023-05-22T14:10:23;94807.09;;;22.38;42.00
55466;BME280;41329;41.594;23.810;2023-05-22T14:12:48;94803.47;;;22.38;41.97
55466;BME280;41329;41.594;23.810;2023-05-22T14:15:13;94817.47;;;22.41;42.16
55466;BME280;41329;41.594;23.810;2023-05-22T14:17:40;94800.16;;;22.30;42.12